createdAt,value
2023-02-19T00:02:47.963Z,16.50
2023-02-19T00:04:22.644Z,15.07
2023-02-19T00:05:54.719Z,17.05
2023-02-19T00:07:26.775Z,16.85
2023-02-19T00:08:59.419Z,14.35
2023-02-19T00:10:31.598Z,15.30
2023-02-19T00:12:03.775Z,15.32
2023-02-19T00:13:43.815Z,15.00
2023-02-19T00:15:15.854Z,12.95
2023-02-19T00:16:48.282Z,15.73
2023-02-19T00:18:20.290Z,15.13
2023-02-19T00:19:52.416Z,13.25
2023-02-19T00:21:24.814Z,11.80
2023-02-19T00:22:56.826Z,14.80
2023-02-19T00:24:28.993Z,13.05
2023-02-19T00:26:18.101Z,12.80
2023-02-19T00:27:50.736Z,11.65
2023-02-19T00:29:23.097Z,12.57
2023-02-19T00:30:55.336Z,13.27
2023-02-19T00:32:27.307Z,11.98
2023-02-19T00:34:01.901Z,15.98
2023-02-19T00:37:10.041Z,13.85
2023-02-19T00:38:43.329Z,16.77
2023-02-19T00:40:15.431Z,18.52
2023-02-19T00:41:47.943Z,16.60
2023-02-19T00:43:19.947Z,17.92
2023-02-19T00:44:51.989Z,15.35
2023-02-19T00:46:28.859Z,17.50
2023-02-19T00:48:00.952Z,18.20
2023-02-19T00:49:32.965Z,16.20
2023-02-19T00:51:05.048Z,14.35
2023-02-19T00:52:37.300Z,12.65
2023-02-19T00:54:11.012Z,13.40
2023-02-19T00:55:43.641Z,10.93
2023-02-19T00:57:15.614Z,12.55
2023-02-19T00:58:48.290Z,11.80
2023-02-19T01:00:23.038Z,12.37
2023-02-19T01:01:55.066Z,13.00
2023-02-19T01:03:27.432Z,13.05
2023-02-19T01:04:59.585Z,11.40
2023-02-19T01:06:32.855Z,11.68
2023-02-19T01:08:04.984Z,10.52
2023-02-19T01:09:38.446Z,12.00
2023-02-19T01:12:42.407Z,11.50
2023-02-19T01:14:14.595Z,12.27
2023-02-19T01:15:46.767Z,14.25
2023-02-19T01:17:18.823Z,12.80
2023-02-19T01:18:51.841Z,11.18
2023-02-19T01:20:23.941Z,10.23
2023-02-19T01:21:55.910Z,10.77
2023-02-19T01:23:27.949Z,10.15
2023-02-19T01:25:02.138Z,11.35
2023-02-19T01:26:34.517Z,11.98
2023-02-19T01:28:06.842Z,10.90
2023-02-19T01:29:39.002Z,10.80
2023-02-19T01:31:14.390Z,11.13
2023-02-19T01:32:46.647Z,10.88
2023-02-19T01:34:18.663Z,9.88
2023-02-19T01:35:50.728Z,11.30
2023-02-19T01:37:22.694Z,9.57
2023-02-19T01:38:55.174Z,10.75
2023-02-19T01:40:27.311Z,12.32
2023-02-19T01:41:59.332Z,13.57
2023-02-19T01:43:36.468Z,12.93
2023-02-19T01:45:14.596Z,11.68
2023-02-19T01:46:48.819Z,12.70
2023-02-19T01:48:25.770Z,13.27
2023-02-19T01:49:58.193Z,14.35
2023-02-19T01:51:31.719Z,13.15
2023-02-19T01:53:05.931Z,12.70
2023-02-19T01:54:38.947Z,10.82
2023-02-19T01:56:12.376Z,11.70
2023-02-19T01:57:47.320Z,13.02
2023-02-19T01:59:19.483Z,10.63
2023-02-19T02:00:52.178Z,9.93
2023-02-19T02:02:25.475Z,10.80
2023-02-19T02:03:57.895Z,10.75
2023-02-19T02:06:03.651Z,10.00
2023-02-19T02:07:54.363Z,11.52
2023-02-19T02:09:46.845Z,10.57
2023-02-19T02:11:20.132Z,12.40
2023-02-19T02:12:53.894Z,12.45
2023-02-19T02:14:29.222Z,12.52
2023-02-19T02:16:10.801Z,9.95
2023-02-19T02:18:01.966Z,12.18
2023-02-19T02:20:01.431Z,10.70
2023-02-19T02:22:02.379Z,11.15
2023-02-19T02:23:55.535Z,9.20
2023-02-19T02:25:39.813Z,10.48
2023-02-19T02:27:29.101Z,10.88
2023-02-19T02:29:28.295Z,11.85
2023-02-19T02:31:04.967Z,13.52
2023-02-19T02:33:15.091Z,14.52
2023-02-19T02:34:54.975Z,15.63
2023-02-19T02:36:30.590Z,16.27
2023-02-19T02:38:06.810Z,11.80
2023-02-19T02:39:39.558Z,16.35
2023-02-19T02:41:13.328Z,17.73
2023-02-19T02:42:45.434Z,16.50
2023-02-19T02:44:17.541Z,16.17
2023-02-19T02:45:49.858Z,16.45
2023-02-19T02:47:40.357Z,15.27
2023-02-19T02:49:17.943Z,12.55
2023-02-19T02:50:54.701Z,13.48
2023-02-19T02:52:45.065Z,16.55
2023-02-19T02:54:41.143Z,16.02
2023-02-19T02:56:14.802Z,13.55
2023-02-19T02:57:46.954Z,14.23
2023-02-19T02:59:22.701Z,19.17
2023-02-19T03:01:20.704Z,17.88
2023-02-19T03:02:53.154Z,17.65
2023-02-19T03:05:15.294Z,13.00
2023-02-19T03:06:48.414Z,12.90
2023-02-19T03:08:20.465Z,12.50
2023-02-19T03:09:52.874Z,18.38
2023-02-19T03:11:43.940Z,13.30
2023-02-19T03:17:16.579Z,21.63
2023-02-19T03:19:10.760Z,18.40
2023-02-19T03:20:46.294Z,19.33
2023-02-19T03:22:23.368Z,11.85
2023-02-19T03:24:15.304Z,13.05
2023-02-19T03:26:05.530Z,10.63
2023-02-19T03:27:39.380Z,8.82
2023-02-19T03:29:24.544Z,10.80
2023-02-19T03:30:56.633Z,12.50
2023-02-19T03:32:50.158Z,13.10
2023-02-19T03:34:29.920Z,8.13
2023-02-19T03:36:04.649Z,9.73
2023-02-19T03:37:42.455Z,8.73
2023-02-19T03:39:17.615Z,10.10
2023-02-19T03:40:57.505Z,12.70
2023-02-19T03:42:49.848Z,11.65
2023-02-19T03:44:30.762Z,11.25
2023-02-19T03:46:23.587Z,11.90
2023-02-19T03:48:10.455Z,11.30
2023-02-19T03:50:21.282Z,10.73
2023-02-19T03:52:25.311Z,11.55
2023-02-19T03:54:39.661Z,11.18
2023-02-19T03:56:20.331Z,10.23
2023-02-19T03:57:59.089Z,11.75
2023-02-19T03:59:57.294Z,15.73
2023-02-19T04:01:33.608Z,18.67
2023-02-19T04:04:02.459Z,19.77
2023-02-19T04:05:38.894Z,18.23
2023-02-19T04:07:11.035Z,29.45
2023-02-19T04:08:48.235Z,24.27
2023-02-19T04:10:21.157Z,30.25
2023-02-19T04:11:54.501Z,30.15
2023-02-19T04:13:56.964Z,22.40
2023-02-19T04:15:31.972Z,14.15
2023-02-19T04:17:08.295Z,11.15
2023-02-19T04:18:42.052Z,12.98
2023-02-19T04:20:14.809Z,11.45
2023-02-19T04:21:47.671Z,15.38
2023-02-19T04:23:23.127Z,13.98
2023-02-19T04:24:55.927Z,11.73
2023-02-19T04:26:28.490Z,12.97
2023-02-19T04:28:00.797Z,12.90
2023-02-19T04:29:32.988Z,12.57
2023-02-19T04:31:05.191Z,11.13
2023-02-19T04:32:37.330Z,13.00
2023-02-19T04:34:09.269Z,12.40
2023-02-19T04:35:41.369Z,13.23
2023-02-19T04:37:13.468Z,13.65
2023-02-19T04:38:46.586Z,13.43
2023-02-19T04:40:18.734Z,19.23
2023-02-19T04:41:50.749Z,19.13
2023-02-19T04:43:22.775Z,11.05
2023-02-19T04:44:54.890Z,13.02
2023-02-19T04:46:27.039Z,10.98
2023-02-19T04:47:59.293Z,9.88
2023-02-19T04:49:31.245Z,12.18
2023-02-19T04:51:07.593Z,13.23
2023-02-19T04:52:39.749Z,12.40
2023-02-19T04:54:11.744Z,12.63
2023-02-19T04:55:43.732Z,11.90
2023-02-19T04:57:15.750Z,10.93
2023-02-19T04:58:47.974Z,15.95
2023-02-19T05:00:20.102Z,11.68
2023-02-19T05:01:52.238Z,12.13
2023-02-19T05:03:24.315Z,13.55
2023-02-19T05:04:56.470Z,15.95
2023-02-19T05:06:28.546Z,13.70
2023-02-19T05:08:00.604Z,16.25
2023-02-19T05:09:32.637Z,14.40
2023-02-19T05:11:06.835Z,14.07
2023-02-19T05:12:38.922Z,11.77
2023-02-19T05:14:10.930Z,12.75
2023-02-19T05:15:42.974Z,15.57
2023-02-19T05:17:15.104Z,18.42
2023-02-19T05:18:47.761Z,18.75
2023-02-19T05:20:19.756Z,12.57
2023-02-19T05:21:51.748Z,12.23
2023-02-19T05:23:23.865Z,12.30
2023-02-19T05:24:55.950Z,11.32
2023-02-19T05:26:28.133Z,13.45
2023-02-19T05:28:17.332Z,12.68
2023-02-19T05:29:49.280Z,11.13
2023-02-19T05:31:23.000Z,13.38
2023-02-19T05:32:55.744Z,15.38
2023-02-19T05:34:27.696Z,11.23
2023-02-19T05:35:59.842Z,11.23
2023-02-19T05:37:31.935Z,12.68
2023-02-19T05:39:04.006Z,15.00
2023-02-19T05:40:36.207Z,13.77
2023-02-19T05:42:08.253Z,14.85
2023-02-19T05:43:41.092Z,12.40
2023-02-19T05:45:13.214Z,20.40
2023-02-19T05:46:45.281Z,16.83
2023-02-19T05:48:17.302Z,15.48
2023-02-19T05:49:49.379Z,33.60
2023-02-19T05:52:54.277Z,37.57
2023-02-19T05:54:29.422Z,40.67
2023-02-19T05:56:02.090Z,28.73
2023-02-19T05:57:34.129Z,19.27
2023-02-19T05:59:26.902Z,17.55
2023-02-19T06:00:58.948Z,16.80
2023-02-19T06:02:30.975Z,17.88
2023-02-19T06:04:03.176Z,17.35
2023-02-19T06:05:35.246Z,11.52
2023-02-19T06:07:07.291Z,9.85
2023-02-19T06:08:39.284Z,8.50
2023-02-19T06:10:12.456Z,10.73
2023-02-19T06:11:45.122Z,11.00
2023-02-19T06:13:17.904Z,12.07
2023-02-19T06:14:50.248Z,21.70
2023-02-19T06:16:22.430Z,19.63
2023-02-19T06:17:54.466Z,28.27
2023-02-19T06:19:26.482Z,28.73
2023-02-19T06:21:03.186Z,23.73
2023-02-19T06:22:35.146Z,27.27
2023-02-19T06:24:08.920Z,40.55
2023-02-19T06:25:41.025Z,40.60
2023-02-19T06:27:13.145Z,45.15
2023-02-19T06:28:46.256Z,35.85
2023-02-19T06:30:18.574Z,27.35
2023-02-19T06:31:50.722Z,27.98
2023-02-19T06:33:22.758Z,25.48
2023-02-19T06:34:54.837Z,23.65
2023-02-19T06:36:26.994Z,22.23
2023-02-19T06:37:59.042Z,26.73
2023-02-19T06:39:31.108Z,22.23
2023-02-19T06:41:05.282Z,31.88
2023-02-19T06:42:37.423Z,33.17
2023-02-19T06:44:09.519Z,33.45
2023-02-19T06:45:41.539Z,26.85
2023-02-19T06:47:13.582Z,29.88
2023-02-19T06:48:46.259Z,72.90
2023-02-19T06:50:18.305Z,61.00
2023-02-19T06:51:50.379Z,51.63
2023-02-19T06:53:22.899Z,49.75
2023-02-19T06:54:55.032Z,37.35
2023-02-19T06:56:32.444Z,32.10
2023-02-19T06:58:04.570Z,25.55
2023-02-19T06:59:36.624Z,21.25
2023-02-19T07:01:12.229Z,23.67
2023-02-19T07:02:44.498Z,13.77
2023-02-19T07:04:16.636Z,16.85
2023-02-19T07:05:48.933Z,10.07
2023-02-19T07:07:21.046Z,11.85
2023-02-19T07:08:54.450Z,9.02
2023-02-19T07:10:26.638Z,9.55
2023-02-19T07:11:58.658Z,8.80
2023-02-19T07:13:30.818Z,11.80
2023-02-19T07:15:02.922Z,10.65
2023-02-19T07:16:36.192Z,9.10
2023-02-19T07:18:10.716Z,8.65
2023-02-19T07:19:45.170Z,7.50
2023-02-19T07:21:18.423Z,8.52
2023-02-19T07:22:50.826Z,7.10
2023-02-19T07:24:23.115Z,7.30
2023-02-19T07:25:55.177Z,7.72
2023-02-19T07:27:27.306Z,7.35
2023-02-19T07:28:59.492Z,7.45
2023-02-19T07:30:31.518Z,7.43
2023-02-19T07:32:06.015Z,8.68
2023-02-19T07:33:38.528Z,9.00
2023-02-19T07:35:10.592Z,7.53
2023-02-19T07:36:42.756Z,9.30
2023-02-19T07:38:18.497Z,10.18
2023-02-19T07:39:50.886Z,7.85
2023-02-19T07:41:24.178Z,8.27
2023-02-19T07:42:56.235Z,9.63
2023-02-19T07:44:28.349Z,7.68
2023-02-19T07:46:04.118Z,9.70
2023-02-19T07:47:36.275Z,10.18
2023-02-19T07:49:08.386Z,7.97
2023-02-19T07:50:40.654Z,8.70
2023-02-19T07:52:12.718Z,9.13
2023-02-19T07:53:45.434Z,12.60
2023-02-19T07:55:17.559Z,10.93
2023-02-19T07:56:49.628Z,12.40
2023-02-19T07:58:21.681Z,10.85
2023-02-19T07:59:53.707Z,12.77
2023-02-19T08:01:45.614Z,9.93
2023-02-19T08:03:17.624Z,10.27
2023-02-19T08:04:52.768Z,9.10
2023-02-19T08:06:24.804Z,9.50
2023-02-19T08:07:57.606Z,8.35
2023-02-19T08:09:29.692Z,12.15
2023-02-19T08:11:21.091Z,8.55
2023-02-19T08:13:16.016Z,8.00
2023-02-19T08:14:48.033Z,10.98
2023-02-19T08:16:33.103Z,8.35
2023-02-19T08:18:14.259Z,8.52
2023-02-19T08:21:21.363Z,7.50
2023-02-19T08:22:53.448Z,7.45
2023-02-19T08:25:59.463Z,9.98
2023-02-19T08:27:31.445Z,9.70
2023-02-19T08:29:05.025Z,9.80
2023-02-19T08:30:38.858Z,7.60
2023-02-19T08:32:10.982Z,7.50
2023-02-19T08:33:43.421Z,5.22
2023-02-19T08:35:15.588Z,8.60
2023-02-19T08:36:47.913Z,6.05
2023-02-19T08:38:21.486Z,6.03
2023-02-19T08:39:56.472Z,4.43
2023-02-19T08:41:28.634Z,6.28
2023-02-19T08:43:09.300Z,5.82
2023-02-19T08:44:41.642Z,7.28
2023-02-19T08:46:13.952Z,6.30
2023-02-19T08:47:46.298Z,5.68
2023-02-19T08:49:18.414Z,5.88
2023-02-19T08:50:59.495Z,4.97
2023-02-19T08:52:31.947Z,5.50
2023-02-19T08:54:04.691Z,4.63
2023-02-19T08:55:38.711Z,6.95
2023-02-19T08:57:10.832Z,5.43
2023-02-19T08:58:43.349Z,7.00
2023-02-19T09:00:15.832Z,4.90
2023-02-19T09:01:48.090Z,17.07
2023-02-19T09:03:20.272Z,4.25
2023-02-19T09:04:52.520Z,3.58
2023-02-19T09:06:24.601Z,6.18
2023-02-19T09:07:57.412Z,7.80
2023-02-19T09:09:29.678Z,6.78
2023-02-19T09:11:03.779Z,5.57
2023-02-19T09:12:35.858Z,7.57
2023-02-19T09:14:08.184Z,6.22
2023-02-19T09:15:40.379Z,7.40
2023-02-19T09:17:13.094Z,6.07
2023-02-19T09:18:46.207Z,7.20
2023-02-19T09:20:18.476Z,6.72
2023-02-19T09:21:50.628Z,10.25
2023-02-19T09:23:23.184Z,5.80
2023-02-19T09:24:55.519Z,9.07
2023-02-19T09:26:27.748Z,3.15
2023-02-19T09:27:59.908Z,9.40
2023-02-19T09:29:32.003Z,7.45
2023-02-19T09:31:06.061Z,5.45
2023-02-19T09:32:38.136Z,4.78
2023-02-19T09:34:10.561Z,6.22
2023-02-19T09:35:42.588Z,5.73
2023-02-19T09:37:14.696Z,6.78
2023-02-19T09:38:46.888Z,7.85
2023-02-19T09:40:21.945Z,6.88
2023-02-19T09:41:59.554Z,5.18
2023-02-19T09:43:31.714Z,4.90
2023-02-19T09:45:05.047Z,3.83
2023-02-19T09:48:15.911Z,6.35
2023-02-19T09:49:52.864Z,5.30
2023-02-19T09:51:26.503Z,6.78
2023-02-19T09:53:00.126Z,7.15
2023-02-19T09:56:05.396Z,4.20
2023-02-19T09:57:37.621Z,4.50
2023-02-19T09:59:20.081Z,6.22
2023-02-19T10:00:52.865Z,7.40
2023-02-19T10:02:26.176Z,6.47
2023-02-19T10:05:30.592Z,6.80
2023-02-19T10:07:04.044Z,5.10
2023-02-19T10:10:23.207Z,6.25
2023-02-19T10:11:56.865Z,6.57
2023-02-19T10:13:51.329Z,8.02
2023-02-19T10:15:39.555Z,6.07
2023-02-19T10:17:25.519Z,5.82
2023-02-19T10:18:57.629Z,6.47
2023-02-19T10:20:30.125Z,4.60
2023-02-19T10:22:06.914Z,5.15
2023-02-19T10:23:40.340Z,6.10
2023-02-19T10:25:18.944Z,5.75
2023-02-19T10:26:50.982Z,7.78
2023-02-19T10:28:34.154Z,5.63
2023-02-19T10:30:06.913Z,4.95
2023-02-19T10:31:39.200Z,4.22
2023-02-19T10:33:16.316Z,6.07
2023-02-19T10:34:48.442Z,5.03
2023-02-19T10:36:32.155Z,4.38
2023-02-19T10:38:07.079Z,4.13
2023-02-19T10:39:44.011Z,4.90
2023-02-19T10:41:21.178Z,5.40
2023-02-19T10:43:04.224Z,6.82
2023-02-19T10:44:42.166Z,3.20
2023-02-19T10:46:19.716Z,5.18
2023-02-19T10:47:52.080Z,6.35
2023-02-19T10:49:34.461Z,6.15
2023-02-19T10:51:09.213Z,7.13
2023-02-19T10:54:19.919Z,5.28
2023-02-19T10:56:11.711Z,8.13
2023-02-19T10:57:43.879Z,5.22
2023-02-19T10:59:28.291Z,3.97
2023-02-19T11:01:21.321Z,5.53
2023-02-19T11:03:22.584Z,3.28
2023-02-19T11:05:20.861Z,5.18
2023-02-19T11:06:53.072Z,5.65
2023-02-19T11:08:25.371Z,4.78
2023-02-19T11:09:57.853Z,4.57
2023-02-19T11:11:36.140Z,3.60
2023-02-19T11:13:15.021Z,4.70
2023-02-19T11:14:47.093Z,5.38
2023-02-19T11:16:19.140Z,5.05
2023-02-19T11:17:57.734Z,6.72
2023-02-19T11:19:29.798Z,7.30
2023-02-19T11:21:04.858Z,6.32
2023-02-19T11:22:40.023Z,5.50
2023-02-19T11:24:34.527Z,6.18
2023-02-19T11:26:14.602Z,9.23
2023-02-19T11:27:58.575Z,4.57
2023-02-19T11:29:35.022Z,6.15
2023-02-19T11:31:20.684Z,8.23
2023-02-19T11:32:52.983Z,11.18
2023-02-19T11:34:30.428Z,3.97
2023-02-19T11:36:30.102Z,19.10
2023-02-19T11:38:02.778Z,10.45
2023-02-19T11:39:36.025Z,29.38
2023-02-19T11:41:28.400Z,6.50
2023-02-19T11:43:26.682Z,5.85
2023-02-19T11:45:13.787Z,5.00
2023-02-19T11:47:24.545Z,30.60
2023-02-19T11:49:05.109Z,5.80
2023-02-19T11:50:53.524Z,7.05
2023-02-19T11:53:07.219Z,7.80
2023-02-19T11:54:52.320Z,4.68
2023-02-19T11:56:34.188Z,4.60
2023-02-19T11:58:49.955Z,5.82
2023-02-19T12:00:30.585Z,6.60
2023-02-19T12:02:28.791Z,5.28
2023-02-19T12:04:22.035Z,5.30
2023-02-19T12:06:00.113Z,8.18
2023-02-19T12:08:09.837Z,6.68
2023-02-19T12:09:57.147Z,5.30
2023-02-19T12:11:49.535Z,7.57
2023-02-19T12:13:48.798Z,6.60
2023-02-19T12:15:24.090Z,4.00
2023-02-19T12:17:24.143Z,4.55
2023-02-19T12:19:02.268Z,8.95
2023-02-19T12:21:07.135Z,5.10
2023-02-19T12:22:55.643Z,6.32
2023-02-19T12:24:30.607Z,4.40
2023-02-19T12:26:33.147Z,4.38
2023-02-19T12:28:19.585Z,5.18
2023-02-19T12:30:22.381Z,5.68
2023-02-19T12:32:15.439Z,8.13
2023-02-19T12:34:08.657Z,8.18
2023-02-19T12:35:47.956Z,6.38
2023-02-19T12:37:38.938Z,6.80
2023-02-19T12:39:35.154Z,6.07
2023-02-19T12:41:25.945Z,7.97
2023-02-19T12:43:14.347Z,7.38
2023-02-19T12:44:54.540Z,6.45
2023-02-19T12:46:29.964Z,7.95
2023-02-19T12:48:40.408Z,7.47
2023-02-19T12:50:31.352Z,6.75
2023-02-19T12:52:21.164Z,5.60
2023-02-19T12:53:57.646Z,6.30
2023-02-19T12:55:36.898Z,7.05
2023-02-19T12:57:25.523Z,6.95
2023-02-19T12:59:02.666Z,6.05
2023-02-19T13:00:56.977Z,6.72
2023-02-19T13:04:24.912Z,7.60
2023-02-19T13:06:42.112Z,8.00
2023-02-19T13:08:35.571Z,6.20
2023-02-19T13:11:53.901Z,7.90
2023-02-19T13:13:31.350Z,7.00
2023-02-19T13:15:14.299Z,7.38
2023-02-19T13:16:49.998Z,6.95
2023-02-19T13:18:27.352Z,7.18
2023-02-19T13:21:56.034Z,7.22
2023-02-19T13:23:50.468Z,7.25
2023-02-19T13:25:22.930Z,7.57
2023-02-19T13:27:12.877Z,6.80
2023-02-19T13:29:10.050Z,6.80
2023-02-19T13:31:17.255Z,6.28
2023-02-19T13:33:01.396Z,7.97
2023-02-19T13:34:49.594Z,6.28
2023-02-19T13:36:29.243Z,7.38
2023-02-19T13:38:02.866Z,6.75
2023-02-19T13:39:35.104Z,7.13
2023-02-19T13:41:07.687Z,7.85
2023-02-19T13:42:39.934Z,8.35
2023-02-19T13:44:23.784Z,7.68
2023-02-19T13:47:49.446Z,7.50
2023-02-19T13:49:32.745Z,6.63
2023-02-19T13:51:17.432Z,7.75
2023-02-19T13:52:50.338Z,7.03
2023-02-19T13:54:33.835Z,8.38
2023-02-19T13:56:28.490Z,7.80
2023-02-19T13:58:40.638Z,7.22
2023-02-19T14:00:49.586Z,8.57
2023-02-19T14:02:21.812Z,6.85
2023-02-19T14:03:55.988Z,7.43
2023-02-19T14:05:59.996Z,9.40
2023-02-19T14:07:32.100Z,7.55
2023-02-19T14:09:04.136Z,7.10
2023-02-19T14:10:51.187Z,6.90
2023-02-19T14:12:35.575Z,7.78
2023-02-19T14:14:29.390Z,7.30
2023-02-19T14:16:01.436Z,10.18
2023-02-19T14:17:36.331Z,7.05
2023-02-19T14:20:46.889Z,6.78
2023-02-19T14:22:46.908Z,7.88
2023-02-19T14:24:19.036Z,7.70
2023-02-19T14:25:54.407Z,7.70
2023-02-19T14:27:26.566Z,8.10
2023-02-19T14:29:02.547Z,7.45
2023-02-19T15:25:24.586Z,35.05
2023-02-19T15:26:56.983Z,49.03
2023-02-19T15:28:33.617Z,45.20
2023-02-19T15:30:24.617Z,57.55
2023-02-19T15:31:59.600Z,51.83
2023-02-19T15:33:34.870Z,50.08
2023-02-19T15:35:07.139Z,25.50
2023-02-19T15:36:39.455Z,32.25
2023-02-19T15:38:13.014Z,44.72
2023-02-19T15:39:46.861Z,29.67
2023-02-19T15:41:20.423Z,30.52
2023-02-19T15:42:52.532Z,29.67
2023-02-19T15:44:27.180Z,26.17
2023-02-19T15:46:03.541Z,36.17
2023-02-19T15:47:58.377Z,36.72
2023-02-19T15:49:57.824Z,29.33
2023-02-19T15:51:39.656Z,29.70
2023-02-19T15:53:20.114Z,32.05
2023-02-19T15:55:19.161Z,25.13
2023-02-19T15:56:51.263Z,23.90
2023-02-19T15:58:46.006Z,38.72
2023-02-19T16:00:21.979Z,48.10
2023-02-19T16:01:54.323Z,54.80
2023-02-19T16:03:28.164Z,56.65
2023-02-19T16:05:02.663Z,33.92
2023-02-19T16:06:52.101Z,43.13
2023-02-19T16:08:30.927Z,38.42
2023-02-19T16:10:21.642Z,40.47
2023-02-19T16:11:55.381Z,38.90
2023-02-19T16:13:30.732Z,35.45
2023-02-19T16:15:13.502Z,33.92
2023-02-19T16:16:46.829Z,27.95
2023-02-19T16:20:05.082Z,26.77
2023-02-19T16:21:37.400Z,26.38
2023-02-19T16:23:15.362Z,28.00
2023-02-19T16:24:55.237Z,20.80
2023-02-19T16:26:28.311Z,18.55
2023-02-19T16:28:00.469Z,20.20
2023-02-19T16:29:33.682Z,13.20
2023-02-19T16:31:06.670Z,14.18
2023-02-19T16:32:38.733Z,18.60
2023-02-19T16:34:29.868Z,29.58
2023-02-19T16:36:33.942Z,23.27
2023-02-19T16:38:17.326Z,36.22
2023-02-19T16:40:00.410Z,19.38
2023-02-19T16:41:33.010Z,25.50
2023-02-19T16:43:04.987Z,23.67
2023-02-19T16:44:37.816Z,16.35
2023-02-19T16:46:11.624Z,18.88
2023-02-19T16:47:48.748Z,13.93
2023-02-19T16:49:21.637Z,19.90
2023-02-19T16:50:56.290Z,22.70
2023-02-19T16:52:29.137Z,19.40
2023-02-19T16:54:01.347Z,19.23
2023-02-19T16:55:34.973Z,19.85
2023-02-19T16:57:07.086Z,14.55
2023-02-19T17:00:23.293Z,16.70
2023-02-19T17:01:55.497Z,16.45
2023-02-19T17:03:28.235Z,12.60
2023-02-19T17:05:01.046Z,15.15
2023-02-19T17:06:35.093Z,14.80
2023-02-19T17:08:31.861Z,25.75
2023-02-19T17:10:04.062Z,24.02
2023-02-19T17:11:36.527Z,20.52
2023-02-19T17:13:09.187Z,19.45
2023-02-19T17:14:41.349Z,39.15
2023-02-19T17:16:25.351Z,26.00
2023-02-19T17:17:57.505Z,21.48
2023-02-19T17:19:29.621Z,25.10
2023-02-19T17:21:21.037Z,27.13
2023-02-19T17:22:53.165Z,21.73
2023-02-19T17:24:25.618Z,17.50
2023-02-19T17:25:57.697Z,14.53
2023-02-19T17:27:29.730Z,20.58
2023-02-19T17:29:04.638Z,18.17
2023-02-19T17:30:38.842Z,16.88
2023-02-19T17:33:57.746Z,28.65
2023-02-19T17:35:29.892Z,28.75
2023-02-19T17:37:01.890Z,33.15
2023-02-19T17:38:33.986Z,30.20
2023-02-19T17:40:32.218Z,32.47
2023-02-19T17:42:06.380Z,34.17
2023-02-19T17:43:38.358Z,28.58
2023-02-19T17:45:10.370Z,19.80
2023-02-19T17:46:42.514Z,17.73
2023-02-19T17:48:15.278Z,14.45
2023-02-19T17:49:47.447Z,16.92
2023-02-19T17:51:19.759Z,15.15
2023-02-19T17:52:51.907Z,16.10
2023-02-19T17:54:23.941Z,17.73
2023-02-19T17:55:55.986Z,15.55
2023-02-19T17:57:33.010Z,14.98
2023-02-19T17:59:05.072Z,14.50
2023-02-19T18:00:37.182Z,11.90
2023-02-19T18:02:09.395Z,13.23
2023-02-19T18:03:41.752Z,13.52
2023-02-19T18:05:14.272Z,13.65
2023-02-19T18:06:46.518Z,14.70
2023-02-19T18:08:18.727Z,14.68
2023-02-19T18:09:51.084Z,13.27
2023-02-19T18:11:24.156Z,12.70
2023-02-19T18:12:56.611Z,14.63
2023-02-19T18:14:28.669Z,16.02
2023-02-19T18:16:00.733Z,13.27
2023-02-19T18:17:32.874Z,15.45
2023-02-19T18:19:04.970Z,16.65
2023-02-19T18:20:37.333Z,29.25
2023-02-19T18:22:09.352Z,31.17
2023-02-19T18:23:41.529Z,30.33
2023-02-19T18:25:13.704Z,29.42
2023-02-19T18:26:45.950Z,27.50
2023-02-19T18:28:18.087Z,31.45
2023-02-19T18:29:55.556Z,23.20
2023-02-19T18:31:27.714Z,15.25
2023-02-19T18:32:59.799Z,23.35
2023-02-19T18:34:31.832Z,19.42
2023-02-19T18:36:04.399Z,24.98
2023-02-19T18:37:36.411Z,25.98
2023-02-19T18:39:08.422Z,29.77
2023-02-19T18:40:40.528Z,22.40
2023-02-19T18:43:44.333Z,23.73
2023-02-19T18:45:16.441Z,22.50
2023-02-19T18:46:48.963Z,19.92
2023-02-19T18:48:20.973Z,20.03
2023-02-19T18:49:55.674Z,17.80
2023-02-19T18:51:27.729Z,16.70
2023-02-19T18:53:00.032Z,19.05
2023-02-19T18:54:32.790Z,15.75
2023-02-19T18:56:05.762Z,14.65
2023-02-19T18:57:38.314Z,13.02
2023-02-19T18:59:10.478Z,14.93
2023-02-19T19:00:42.597Z,13.75
2023-02-19T19:02:15.377Z,15.05
2023-02-19T19:03:47.404Z,13.90
2023-02-19T19:05:24.324Z,14.00
2023-02-19T19:06:56.347Z,15.35
2023-02-19T19:08:30.592Z,13.50
2023-02-19T19:10:02.888Z,13.25
2023-02-19T19:11:35.263Z,12.93
2023-02-19T19:13:07.454Z,13.48
2023-02-19T19:14:39.532Z,15.20
2023-02-19T19:16:11.907Z,17.05
2023-02-19T19:17:44.050Z,16.70
2023-02-19T19:19:16.527Z,18.35
2023-02-19T19:20:48.529Z,14.48
2023-02-19T19:22:23.096Z,16.55
2023-02-19T19:23:55.158Z,14.70
2023-02-19T19:25:27.186Z,16.55
2023-02-19T19:26:59.199Z,16.02
2023-02-19T19:28:31.692Z,15.20
2023-02-19T19:30:05.309Z,15.27
2023-02-19T19:31:37.783Z,19.38
2023-02-19T19:33:11.938Z,20.87
2023-02-19T19:34:44.226Z,19.58
2023-02-19T19:36:20.264Z,15.95
2023-02-19T19:37:54.856Z,16.48
2023-02-19T19:39:26.952Z,15.93
2023-02-19T19:40:59.154Z,16.45
2023-02-19T19:42:31.332Z,17.15
2023-02-19T19:44:07.019Z,17.88
2023-02-19T19:47:22.070Z,17.02
2023-02-19T19:48:54.321Z,12.20
2023-02-19T19:50:26.430Z,14.95
2023-02-19T19:52:01.373Z,19.00
2023-02-19T19:53:33.446Z,18.20
2023-02-19T19:55:06.437Z,17.08
2023-02-19T19:56:42.485Z,14.52
2023-02-19T19:58:14.546Z,18.13
2023-02-19T19:59:51.361Z,19.58
2023-02-19T20:01:23.996Z,19.13
2023-02-19T20:02:56.180Z,19.90
2023-02-19T20:04:28.438Z,20.55
2023-02-19T20:06:00.590Z,29.88
2023-02-19T20:07:32.894Z,29.45
2023-02-19T20:09:04.902Z,25.73
2023-02-19T20:10:36.975Z,27.05
2023-02-19T20:12:09.165Z,20.73
2023-02-19T20:13:43.680Z,16.95
2023-02-19T20:16:55.111Z,17.13
2023-02-19T20:18:27.824Z,19.58
2023-02-19T20:20:00.107Z,16.30
2023-02-19T20:21:32.446Z,14.80
2023-02-19T20:23:04.517Z,14.32
2023-02-19T20:24:36.639Z,18.83
2023-02-19T20:26:08.806Z,17.17
2023-02-19T20:27:40.832Z,65.60
2023-02-19T20:29:13.317Z,18.60
2023-02-19T20:30:45.363Z,16.40
2023-02-19T20:32:20.675Z,13.50
2023-02-19T20:33:52.911Z,18.25
2023-02-19T20:35:28.847Z,15.82
2023-02-19T20:37:01.077Z,16.85
2023-02-19T20:38:33.072Z,14.32
2023-02-19T20:40:05.973Z,17.35
2023-02-19T20:41:37.965Z,19.10
2023-02-19T20:43:10.033Z,18.95
2023-02-19T20:44:43.229Z,15.25
2023-02-19T20:46:15.610Z,14.77
2023-02-19T20:47:48.323Z,16.20
2023-02-19T20:49:22.457Z,15.13
2023-02-19T20:50:59.695Z,17.75
2023-02-19T20:52:31.679Z,15.02
2023-02-19T20:54:03.857Z,14.25
2023-02-19T20:55:36.065Z,13.82
2023-02-19T20:57:08.304Z,12.40
2023-02-19T20:58:43.555Z,14.00
2023-02-19T21:00:17.356Z,15.20
2023-02-19T21:01:49.642Z,13.25
2023-02-19T21:03:22.357Z,15.43
2023-02-19T21:04:54.306Z,14.20
2023-02-19T21:06:26.327Z,14.38
2023-02-19T21:07:58.446Z,13.20
2023-02-19T21:09:30.474Z,14.55
2023-02-19T21:11:02.487Z,19.10
2023-02-19T21:12:34.565Z,15.75
2023-02-19T21:14:06.643Z,16.90
2023-02-19T21:15:39.028Z,17.20
2023-02-19T21:17:11.044Z,17.42
2023-02-19T21:18:43.147Z,13.90
2023-02-19T21:20:18.226Z,13.43
2023-02-19T21:21:50.407Z,12.90
2023-02-19T21:23:22.464Z,13.15
2023-02-19T21:24:54.594Z,14.60
2023-02-19T21:26:36.902Z,13.50
2023-02-19T21:28:09.990Z,12.27
2023-02-19T21:29:42.147Z,11.50
2023-02-19T21:31:14.462Z,12.88
2023-02-19T21:32:46.569Z,13.48
2023-02-19T21:34:21.493Z,13.68
2023-02-19T21:35:53.577Z,12.77
2023-02-19T21:37:25.702Z,14.45
2023-02-19T21:38:57.885Z,14.40
2023-02-19T21:40:33.293Z,11.60
2023-02-19T21:42:05.584Z,11.63
2023-02-19T21:43:37.620Z,11.73
2023-02-19T21:45:09.900Z,12.73
2023-02-19T21:46:42.284Z,13.05
2023-02-19T21:48:15.442Z,14.40
2023-02-19T21:49:47.520Z,12.70
2023-02-19T21:51:20.958Z,13.52
2023-02-19T21:54:25.693Z,12.77
2023-02-19T21:55:59.204Z,12.02
2023-02-19T21:59:04.660Z,12.50
2023-02-19T22:00:36.848Z,10.13
2023-02-19T22:02:09.939Z,11.65
2023-02-19T22:03:41.951Z,11.30
2023-02-19T22:05:14.041Z,12.10
2023-02-19T22:06:46.182Z,12.10
2023-02-19T22:08:18.305Z,10.77
2023-02-19T22:09:51.524Z,11.80
2023-02-19T22:11:23.977Z,11.90
2023-02-19T22:12:55.996Z,11.52
2023-02-19T22:14:28.075Z,11.77
2023-02-19T22:16:00.324Z,12.60
2023-02-19T22:17:32.382Z,12.82
2023-02-19T22:19:04.784Z,11.68
2023-02-19T22:20:38.784Z,14.50
2023-02-19T22:22:11.239Z,12.57
2023-02-19T22:23:47.681Z,14.05
2023-02-19T22:25:19.814Z,12.07
2023-02-19T22:26:56.005Z,11.82
2023-02-19T22:28:28.100Z,11.07
2023-02-19T22:30:00.208Z,14.52
2023-02-19T22:31:32.781Z,10.35
2023-02-19T22:33:04.883Z,10.10
2023-02-19T22:34:41.048Z,10.70
2023-02-19T22:36:23.591Z,10.88